sensor_id;sensor_type;location;lat;lon;timestamp;temperature;humidity
22503;DHT22;11418;48.118;9.992;2022-10-13T00:01:22;9.20;99.90
22503;DHT22;11418;48.118;9.992;2022-10-13T00:05:23;9.40;99.90
22503;DHT22;11418;48.118;9.992;2022-10-13T00:09:23;9.70;99.90
22503;DHT22;11418;48.118;9.992;2022-10-13T00:13:24;9.80;99.90
22503;DHT22;11418;48.118;9.992;2022-10-13T00:17:24;9.80;99.90
22503;DHT22;11418;48.118;9.992;2022-10-13T00:21:26;9.80;99.90
22503;DHT22;11418;48.118;9.992;2022-10-13T00:25:27;9.80;99.90
22503;DHT22;11418;48.118;9.992;2022-10-13T00:29:27;9.90;99.90
22503;DHT22;11418;48.118;9.992;2022-10-13T00:33:28;10.00;99.90
22503;DHT22;11418;48.118;9.992;2022-10-13T00:37:28;10.00;99.90
22503;DHT22;11418;48.118;9.992;2022-10-13T00:41:29;10.20;99.90
22503;DHT22;11418;48.118;9.992;2022-10-13T00:45:29;10.20;99.90
22503;DHT22;11418;48.118;9.992;2022-10-13T00:49:30;10.30;99.90
22503;DHT22;11418;48.118;9.992;2022-10-13T00:53:33;10.20;99.90
22503;DHT22;11418;48.118;9.992;2022-10-13T00:57:38;10.20;99.90
22503;DHT22;11418;48.118;9.992;2022-10-13T01:01:39;10.20;99.90
22503;DHT22;11418;48.118;9.992;2022-10-13T01:05:40;10.10;99.90
22503;DHT22;11418;48.118;9.992;2022-10-13T01:09:41;10.20;99.90
22503;DHT22;11418;48.118;9.992;2022-10-13T01:22:44;10.20;99.90
22503;DHT22;11418;48.118;9.992;2022-10-13T01:31:24;10.20;99.90
22503;DHT22;11418;48.118;9.992;2022-10-13T01:39:42;10.10;99.90
22503;DHT22;11418;48.118;9.992;2022-10-13T01:44:02;10.20;99.90
22503;DHT22;11418;48.118;9.992;2022-10-13T01:48:06;10.10;99.90
22503;DHT22;11418;48.118;9.992;2022-10-13T01:52:11;10.20;99.90
22503;DHT22;11418;48.118;9.992;2022-10-13T01:56:15;10.20;99.90
22503;DHT22;11418;48.118;9.992;2022-10-13T02:00:18;10.20;99.90
22503;DHT22;11418;48.118;9.992;2022-10-13T02:04:41;10.20;99.90
22503;DHT22;11418;48.118;9.992;2022-10-13T02:08:53;10.30;99.90
22503;DHT22;11418;48.118;9.992;2022-10-13T02:17:51;10.50;99.90
22503;DHT22;11418;48.118;9.992;2022-10-13T02:21:52;11.00;99.90
22503;DHT22;11418;48.118;9.992;2022-10-13T02:25:55;11.10;99.90
22503;DHT22;11418;48.118;9.992;2022-10-13T02:29:57;11.20;99.90
22503;DHT22;11418;48.118;9.992;2022-10-13T02:33:57;11.20;99.90
22503;DHT22;11418;48.118;9.992;2022-10-13T02:37:58;11.20;99.90
22503;DHT22;11418;48.118;9.992;2022-10-13T02:41:59;11.40;99.90
22503;DHT22;11418;48.118;9.992;2022-10-13T02:45:59;11.30;99.90
22503;DHT22;11418;48.118;9.992;2022-10-13T02:50:00;11.40;99.90
22503;DHT22;11418;48.118;9.992;2022-10-13T02:54:03;11.20;99.90
22503;DHT22;11418;48.118;9.992;2022-10-13T02:58:13;11.20;99.90
22503;DHT22;11418;48.118;9.992;2022-10-13T03:02:17;11.00;99.90
22503;DHT22;11418;48.118;9.992;2022-10-13T03:06:20;11.10;99.90
22503;DHT22;11418;48.118;9.992;2022-10-13T03:10:24;10.90;99.90
22503;DHT22;11418;48.118;9.992;2022-10-13T03:14:25;10.90;99.90
22503;DHT22;11418;48.118;9.992;2022-10-13T03:18:25;10.90;99.90
22503;DHT22;11418;48.118;9.992;2022-10-13T03:22:26;11.20;99.90
22503;DHT22;11418;48.118;9.992;2022-10-13T03:26:27;11.30;99.90
22503;DHT22;11418;48.118;9.992;2022-10-13T03:30:27;11.20;99.90
22503;DHT22;11418;48.118;9.992;2022-10-13T03:34:28;11.50;99.90
22503;DHT22;11418;48.118;9.992;2022-10-13T03:38:32;11.40;99.90
22503;DHT22;11418;48.118;9.992;2022-10-13T03:42:37;11.40;99.90
22503;DHT22;11418;48.118;9.992;2022-10-13T03:46:37;11.40;99.90
22503;DHT22;11418;48.118;9.992;2022-10-13T03:50:38;11.40;99.90
22503;DHT22;11418;48.118;9.992;2022-10-13T03:54:39;11.40;99.90
22503;DHT22;11418;48.118;9.992;2022-10-13T03:58:39;11.50;99.90
22503;DHT22;11418;48.118;9.992;2022-10-13T04:02:40;11.30;99.90
22503;DHT22;11418;48.118;9.992;2022-10-13T04:06:41;11.40;99.90
22503;DHT22;11418;48.118;9.992;2022-10-13T04:10:41;11.20;99.90
22503;DHT22;11418;48.118;9.992;2022-10-13T04:14:42;11.20;99.90
22503;DHT22;11418;48.118;9.992;2022-10-13T04:18:44;11.60;99.90
22503;DHT22;11418;48.118;9.992;2022-10-13T04:22:44;11.60;99.90
22503;DHT22;11418;48.118;9.992;2022-10-13T04:26:45;11.60;99.90
22503;DHT22;11418;48.118;9.992;2022-10-13T04:30:45;11.60;99.90
22503;DHT22;11418;48.118;9.992;2022-10-13T04:34:46;11.60;99.90
22503;DHT22;11418;48.118;9.992;2022-10-13T04:38:47;11.60;99.90
22503;DHT22;11418;48.118;9.992;2022-10-13T04:42:47;11.80;99.90
22503;DHT22;11418;48.118;9.992;2022-10-13T04:46:48;11.70;99.90
22503;DHT22;11418;48.118;9.992;2022-10-13T04:51:00;11.60;99.90
22503;DHT22;11418;48.118;9.992;2022-10-13T04:55:01;11.60;99.90
22503;DHT22;11418;48.118;9.992;2022-10-13T04:59:03;11.80;99.90
22503;DHT22;11418;48.118;9.992;2022-10-13T05:03:05;11.90;99.90
22503;DHT22;11418;48.118;9.992;2022-10-13T05:07:05;11.90;99.90
22503;DHT22;11418;48.118;9.992;2022-10-13T05:11:06;11.90;99.90
22503;DHT22;11418;48.118;9.992;2022-10-13T05:15:07;11.90;99.90
22503;DHT22;11418;48.118;9.992;2022-10-13T05:19:07;12.00;99.90
22503;DHT22;11418;48.118;9.992;2022-10-13T05:23:08;12.10;99.90
22503;DHT22;11418;48.118;9.992;2022-10-13T05:27:11;12.10;99.90
22503;DHT22;11418;48.118;9.992;2022-10-13T05:31:20;12.20;99.90
22503;DHT22;11418;48.118;9.992;2022-10-13T05:35:21;12.10;99.90
22503;DHT22;11418;48.118;9.992;2022-10-13T05:39:22;12.10;99.90
22503;DHT22;11418;48.118;9.992;2022-10-13T05:43:23;12.10;99.90
22503;DHT22;11418;48.118;9.992;2022-10-13T05:47:23;12.00;99.90
22503;DHT22;11418;48.118;9.992;2022-10-13T05:51:34;12.00;99.90
22503;DHT22;11418;48.118;9.992;2022-10-13T05:55:37;12.00;99.90
22503;DHT22;11418;48.118;9.992;2022-10-13T05:59:51;12.00;99.90
22503;DHT22;11418;48.118;9.992;2022-10-13T06:03:54;12.30;99.90
22503;DHT22;11418;48.118;9.992;2022-10-13T06:07:55;12.40;99.90
22503;DHT22;11418;48.118;9.992;2022-10-13T06:11:56;12.40;99.90
22503;DHT22;11418;48.118;9.992;2022-10-13T06:15:56;12.40;99.90
22503;DHT22;11418;48.118;9.992;2022-10-13T06:19:57;12.40;99.90
22503;DHT22;11418;48.118;9.992;2022-10-13T06:23:58;12.70;99.90
22503;DHT22;11418;48.118;9.992;2022-10-13T06:28:00;12.60;99.90
22503;DHT22;11418;48.118;9.992;2022-10-13T06:32:01;12.50;99.90
22503;DHT22;11418;48.118;9.992;2022-10-13T06:36:03;12.50;99.90
22503;DHT22;11418;48.118;9.992;2022-10-13T06:40:04;12.80;99.90
22503;DHT22;11418;48.118;9.992;2022-10-13T06:44:05;12.70;99.90
22503;DHT22;11418;48.118;9.992;2022-10-13T06:48:05;12.60;99.90
22503;DHT22;11418;48.118;9.992;2022-10-13T06:52:06;12.60;99.90
22503;DHT22;11418;48.118;9.992;2022-10-13T06:56:08;12.90;99.90
22503;DHT22;11418;48.118;9.992;2022-10-13T07:00:09;13.30;99.90
22503;DHT22;11418;48.118;9.992;2022-10-13T07:04:10;13.50;99.90
22503;DHT22;11418;48.118;9.992;2022-10-13T07:08:17;13.70;99.90
22503;DHT22;11418;48.118;9.992;2022-10-13T07:12:18;13.80;99.90
22503;DHT22;11418;48.118;9.992;2022-10-13T07:16:18;14.20;99.90
22503;DHT22;11418;48.118;9.992;2022-10-13T07:20:20;14.30;99.90
22503;DHT22;11418;48.118;9.992;2022-10-13T07:24:20;14.30;99.90
22503;DHT22;11418;48.118;9.992;2022-10-13T07:28:22;14.10;99.90
22503;DHT22;11418;48.118;9.992;2022-10-13T07:32:23;14.10;99.90
22503;DHT22;11418;48.118;9.992;2022-10-13T07:36:23;13.90;99.90
22503;DHT22;11418;48.118;9.992;2022-10-13T07:40:24;13.90;99.90
22503;DHT22;11418;48.118;9.992;2022-10-13T07:44:26;13.70;99.90
22503;DHT22;11418;48.118;9.992;2022-10-13T07:48:27;13.90;99.90
22503;DHT22;11418;48.118;9.992;2022-10-13T07:52:27;13.90;99.90
22503;DHT22;11418;48.118;9.992;2022-10-13T07:56:28;13.90;99.90
22503;DHT22;11418;48.118;9.992;2022-10-13T08:00:28;13.90;99.90
22503;DHT22;11418;48.118;9.992;2022-10-13T08:04:33;14.20;99.90
22503;DHT22;11418;48.118;9.992;2022-10-13T08:08:34;14.40;99.90
22503;DHT22;11418;48.118;9.992;2022-10-13T08:12:35;14.80;99.90
22503;DHT22;11418;48.118;9.992;2022-10-13T08:16:36;15.00;99.90
22503;DHT22;11418;48.118;9.992;2022-10-13T08:20:43;15.00;99.90
22503;DHT22;11418;48.118;9.992;2022-10-13T08:24:44;15.20;99.90
22503;DHT22;11418;48.118;9.992;2022-10-13T08:28:45;15.20;99.90
22503;DHT22;11418;48.118;9.992;2022-10-13T08:32:45;15.20;99.90
22503;DHT22;11418;48.118;9.992;2022-10-13T08:36:46;15.60;99.90
22503;DHT22;11418;48.118;9.992;2022-10-13T08:40:48;15.60;99.90
22503;DHT22;11418;48.118;9.992;2022-10-13T08:44:59;15.70;99.90
22503;DHT22;11418;48.118;9.992;2022-10-13T08:49:00;15.90;99.90
22503;DHT22;11418;48.118;9.992;2022-10-13T08:53:11;16.30;99.90
22503;DHT22;11418;48.118;9.992;2022-10-13T08:57:13;17.10;99.90
22503;DHT22;11418;48.118;9.992;2022-10-13T09:01:23;17.40;99.90
22503;DHT22;11418;48.118;9.992;2022-10-13T09:05:38;17.50;99.90
22503;DHT22;11418;48.118;9.992;2022-10-13T09:09:41;17.50;99.90
22503;DHT22;11418;48.118;9.992;2022-10-13T09:13:42;17.40;99.90
22503;DHT22;11418;48.118;9.992;2022-10-13T09:17:43;17.60;99.90
22503;DHT22;11418;48.118;9.992;2022-10-13T09:21:43;18.10;99.90
22503;DHT22;11418;48.118;9.992;2022-10-13T09:25:49;18.10;99.90
22503;DHT22;11418;48.118;9.992;2022-10-13T09:29:50;18.20;99.90
22503;DHT22;11418;48.118;9.992;2022-10-13T09:34:02;17.80;99.90
22503;DHT22;11418;48.118;9.992;2022-10-13T09:38:20;17.90;99.90
22503;DHT22;11418;48.118;9.992;2022-10-13T09:42:22;18.00;99.90
22503;DHT22;11418;48.118;9.992;2022-10-13T09:46:35;18.20;99.90
22503;DHT22;11418;48.118;9.992;2022-10-13T09:50:37;18.10;99.90
22503;DHT22;11418;48.118;9.992;2022-10-13T09:54:50;18.10;99.90
22503;DHT22;11418;48.118;9.992;2022-10-13T10:07:15;18.90;99.90
22503;DHT22;11418;48.118;9.992;2022-10-13T10:11:23;18.60;99.90
22503;DHT22;11418;48.118;9.992;2022-10-13T10:15:36;18.90;99.90
22503;DHT22;11418;48.118;9.992;2022-10-13T10:20:11;19.10;99.90
22503;DHT22;11418;48.118;9.992;2022-10-13T10:37:15;19.40;99.90
22503;DHT22;11418;48.118;9.992;2022-10-13T10:41:41;19.20;99.90
22503;DHT22;11418;48.118;9.992;2022-10-13T10:45:46;19.70;99.90
22503;DHT22;11418;48.118;9.992;2022-10-13T10:49:47;19.70;99.90
22503;DHT22;11418;48.118;9.992;2022-10-13T10:54:09;19.50;99.90
22503;DHT22;11418;48.118;9.992;2022-10-13T10:58:42;19.20;99.90
22503;DHT22;11418;48.118;9.992;2022-10-13T11:07:03;19.00;99.90
22503;DHT22;11418;48.118;9.992;2022-10-13T11:19:40;18.80;99.90
22503;DHT22;11418;48.118;9.992;2022-10-13T11:23:46;18.50;99.90
22503;DHT22;11418;48.118;9.992;2022-10-13T11:27:47;18.40;99.90
22503;DHT22;11418;48.118;9.992;2022-10-13T11:31:53;18.30;99.90
22503;DHT22;11418;48.118;9.992;2022-10-13T11:35:54;18.30;99.90
22503;DHT22;11418;48.118;9.992;2022-10-13T11:53:06;18.60;99.90
22503;DHT22;11418;48.118;9.992;2022-10-13T11:57:27;18.40;99.90
22503;DHT22;11418;48.118;9.992;2022-10-13T12:01:28;18.40;99.90
22503;DHT22;11418;48.118;9.992;2022-10-13T12:05:29;18.40;99.90
22503;DHT22;11418;48.118;9.992;2022-10-13T12:09:31;18.30;99.90
22503;DHT22;11418;48.118;9.992;2022-10-13T12:13:33;18.20;99.90
22503;DHT22;11418;48.118;9.992;2022-10-13T12:17:35;18.50;99.90
22503;DHT22;11418;48.118;9.992;2022-10-13T12:21:52;18.60;99.90
22503;DHT22;11418;48.118;9.992;2022-10-13T12:25:53;18.80;99.90
22503;DHT22;11418;48.118;9.992;2022-10-13T12:30:01;19.00;99.90
22503;DHT22;11418;48.118;9.992;2022-10-13T12:34:02;18.80;99.90
22503;DHT22;11418;48.118;9.992;2022-10-13T12:38:07;18.70;99.90
22503;DHT22;11418;48.118;9.992;2022-10-13T12:42:13;18.50;99.90
22503;DHT22;11418;48.118;9.992;2022-10-13T12:46:34;18.50;99.90
22503;DHT22;11418;48.118;9.992;2022-10-13T12:50:36;18.20;99.90
22503;DHT22;11418;48.118;9.992;2022-10-13T12:54:39;18.20;99.90
22503;DHT22;11418;48.118;9.992;2022-10-13T12:58:45;18.10;99.90
22503;DHT22;11418;48.118;9.992;2022-10-13T13:02:57;18.10;99.90
22503;DHT22;11418;48.118;9.992;2022-10-13T13:07:00;18.20;99.90
22503;DHT22;11418;48.118;9.992;2022-10-13T13:11:06;18.20;99.90
22503;DHT22;11418;48.118;9.992;2022-10-13T13:15:27;18.10;99.90
22503;DHT22;11418;48.118;9.992;2022-10-13T13:19:31;18.10;99.90
22503;DHT22;11418;48.118;9.992;2022-10-13T13:23:32;18.10;99.90
22503;DHT22;11418;48.118;9.992;2022-10-13T13:27:38;17.90;99.90
22503;DHT22;11418;48.118;9.992;2022-10-13T13:31:39;17.90;99.90
22503;DHT22;11418;48.118;9.992;2022-10-13T13:35:39;17.80;99.90
22503;DHT22;11418;48.118;9.992;2022-10-13T13:39:40;17.80;99.90
22503;DHT22;11418;48.118;9.992;2022-10-13T13:43:41;18.00;99.90
22503;DHT22;11418;48.118;9.992;2022-10-13T13:47:42;17.90;99.90
22503;DHT22;11418;48.118;9.992;2022-10-13T13:51:42;17.90;99.90
22503;DHT22;11418;48.118;9.992;2022-10-13T13:55:43;17.70;99.90
22503;DHT22;11418;48.118;9.992;2022-10-13T13:59:46;17.70;99.90
22503;DHT22;11418;48.118;9.992;2022-10-13T14:03:46;18.20;99.90
22503;DHT22;11418;48.118;9.992;2022-10-13T14:07:47;18.80;99.90
22503;DHT22;11418;48.118;9.992;2022-10-13T14:11:47;18.50;99.90
22503;DHT22;11418;48.118;9.992;2022-10-13T14:15:58;18.60;99.90
22503;DHT22;11418;48.118;9.992;2022-10-13T14:19:59;19.00;99.90
22503;DHT22;11418;48.118;9.992;2022-10-13T14:23:59;19.10;99.90
22503;DHT22;11418;48.118;9.992;2022-10-13T14:28:00;19.20;99.90
22503;DHT22;11418;48.118;9.992;2022-10-13T14:32:01;19.00;99.90
22503;DHT22;11418;48.118;9.992;2022-10-13T14:36:04;18.30;99.90
22503;DHT22;11418;48.118;9.992;2022-10-13T14:40:05;17.80;99.90
22503;DHT22;11418;48.118;9.992;2022-10-13T14:44:05;17.50;99.90
22503;DHT22;11418;48.118;9.992;2022-10-13T14:48:06;17.20;99.90
22503;DHT22;11418;48.118;9.992;2022-10-13T14:52:07;17.30;99.90
22503;DHT22;11418;48.118;9.992;2022-10-13T14:56:24;17.20;99.90
22503;DHT22;11418;48.118;9.992;2022-10-13T15:00:25;17.00;99.90
22503;DHT22;11418;48.118;9.992;2022-10-13T15:04:25;17.00;99.90
22503;DHT22;11418;48.118;9.992;2022-10-13T15:08:26;16.80;99.90
22503;DHT22;11418;48.118;9.992;2022-10-13T15:12:26;16.80;99.90
22503;DHT22;11418;48.118;9.992;2022-10-13T15:16:29;16.60;99.90
22503;DHT22;11418;48.118;9.992;2022-10-13T15:20:31;16.60;99.90
22503;DHT22;11418;48.118;9.992;2022-10-13T15:24:32;16.30;99.90
22503;DHT22;11418;48.118;9.992;2022-10-13T15:28:36;16.30;99.90
22503;DHT22;11418;48.118;9.992;2022-10-13T15:32:36;16.10;99.90
22503;DHT22;11418;48.118;9.992;2022-10-13T15:36:37;16.00;99.90
22503;DHT22;11418;48.118;9.992;2022-10-13T15:40:39;15.80;99.90
22503;DHT22;11418;48.118;9.992;2022-10-13T15:44:39;15.70;99.90
22503;DHT22;11418;48.118;9.992;2022-10-13T15:48:40;15.70;99.90
22503;DHT22;11418;48.118;9.992;2022-10-13T15:52:41;15.50;99.90
22503;DHT22;11418;48.118;9.992;2022-10-13T15:56:41;15.50;99.90
22503;DHT22;11418;48.118;9.992;2022-10-13T16:00:42;15.40;99.90
22503;DHT22;11418;48.118;9.992;2022-10-13T16:04:43;15.10;99.90
22503;DHT22;11418;48.118;9.992;2022-10-13T16:08:43;15.10;99.90
22503;DHT22;11418;48.118;9.992;2022-10-13T16:12:44;15.00;99.90
22503;DHT22;11418;48.118;9.992;2022-10-13T16:20:47;14.70;99.90
22503;DHT22;11418;48.118;9.992;2022-10-13T16:24:48;14.50;99.90
22503;DHT22;11418;48.118;9.992;2022-10-13T16:28:53;14.60;99.90
22503;DHT22;11418;48.118;9.992;2022-10-13T16:32:54;14.40;99.90
22503;DHT22;11418;48.118;9.992;2022-10-13T16:36:54;14.40;99.90
22503;DHT22;11418;48.118;9.992;2022-10-13T16:40:55;14.20;99.90
22503;DHT22;11418;48.118;9.992;2022-10-13T16:44:56;14.10;99.90
22503;DHT22;11418;48.118;9.992;2022-10-13T16:48:56;14.00;99.90
22503;DHT22;11418;48.118;9.992;2022-10-13T16:52:57;13.90;99.90
22503;DHT22;11418;48.118;9.992;2022-10-13T16:56:58;13.80;99.90
22503;DHT22;11418;48.118;9.992;2022-10-13T17:01:07;13.80;99.90
22503;DHT22;11418;48.118;9.992;2022-10-13T17:05:08;13.70;99.90
22503;DHT22;11418;48.118;9.992;2022-10-13T17:09:09;13.50;99.90
22503;DHT22;11418;48.118;9.992;2022-10-13T17:13:10;13.40;99.90
22503;DHT22;11418;48.118;9.992;2022-10-13T17:17:10;13.40;99.90
22503;DHT22;11418;48.118;9.992;2022-10-13T17:21:13;13.50;99.90
22503;DHT22;11418;48.118;9.992;2022-10-13T17:25:14;13.40;99.90
22503;DHT22;11418;48.118;9.992;2022-10-13T17:29:15;13.40;99.90
22503;DHT22;11418;48.118;9.992;2022-10-13T17:33:15;13.40;99.90
22503;DHT22;11418;48.118;9.992;2022-10-13T17:37:16;13.30;99.90
22503;DHT22;11418;48.118;9.992;2022-10-13T17:41:17;13.20;99.90
22503;DHT22;11418;48.118;9.992;2022-10-13T17:45:18;13.10;99.90
22503;DHT22;11418;48.118;9.992;2022-10-13T17:49:19;13.10;99.90
22503;DHT22;11418;48.118;9.992;2022-10-13T17:53:19;13.00;99.90
22503;DHT22;11418;48.118;9.992;2022-10-13T17:57:20;12.90;99.90
22503;DHT22;11418;48.118;9.992;2022-10-13T18:05:23;13.00;99.90
22503;DHT22;11418;48.118;9.992;2022-10-13T18:09:24;13.10;99.90
22503;DHT22;11418;48.118;9.992;2022-10-13T18:13:24;13.10;99.90
22503;DHT22;11418;48.118;9.992;2022-10-13T18:17:25;13.00;99.90
22503;DHT22;11418;48.118;9.992;2022-10-13T18:21:26;12.90;99.90
22503;DHT22;11418;48.118;9.992;2022-10-13T18:25:27;12.90;99.90
22503;DHT22;11418;48.118;9.992;2022-10-13T18:29:27;12.70;99.90
22503;DHT22;11418;48.118;9.992;2022-10-13T18:33:28;12.80;99.90
22503;DHT22;11418;48.118;9.992;2022-10-13T18:37:29;12.70;99.90
22503;DHT22;11418;48.118;9.992;2022-10-13T18:41:30;12.80;99.90
22503;DHT22;11418;48.118;9.992;2022-10-13T18:45:34;12.70;99.90
22503;DHT22;11418;48.118;9.992;2022-10-13T18:49:34;12.90;99.90
22503;DHT22;11418;48.118;9.992;2022-10-13T18:53:38;12.90;99.90
22503;DHT22;11418;48.118;9.992;2022-10-13T18:57:38;13.10;99.90
22503;DHT22;11418;48.118;9.992;2022-10-13T19:01:39;13.00;99.90
22503;DHT22;11418;48.118;9.992;2022-10-13T19:05:40;12.80;99.90
22503;DHT22;11418;48.118;9.992;2022-10-13T19:09:40;12.60;99.90
22503;DHT22;11418;48.118;9.992;2022-10-13T19:13:41;12.60;99.90
22503;DHT22;11418;48.118;9.992;2022-10-13T19:17:42;12.80;99.90
22503;DHT22;11418;48.118;9.992;2022-10-13T19:21:42;12.90;99.90
22503;DHT22;11418;48.118;9.992;2022-10-13T19:25:43;12.80;99.90
22503;DHT22;11418;48.118;9.992;2022-10-13T19:29:44;12.90;99.90
22503;DHT22;11418;48.118;9.992;2022-10-13T19:33:45;12.70;99.90
22503;DHT22;11418;48.118;9.992;2022-10-13T19:37:46;12.60;99.90
22503;DHT22;11418;48.118;9.992;2022-10-13T19:41:48;12.50;99.90
22503;DHT22;11418;48.118;9.992;2022-10-13T19:45:49;12.50;99.90
22503;DHT22;11418;48.118;9.992;2022-10-13T19:49:55;12.50;99.90
22503;DHT22;11418;48.118;9.992;2022-10-13T19:53:55;12.80;99.90
22503;DHT22;11418;48.118;9.992;2022-10-13T19:57:56;12.80;99.90
22503;DHT22;11418;48.118;9.992;2022-10-13T20:01:57;12.80;99.90
22503;DHT22;11418;48.118;9.992;2022-10-13T20:05:57;12.60;99.90
22503;DHT22;11418;48.118;9.992;2022-10-13T20:09:58;12.70;99.90
22503;DHT22;11418;48.118;9.992;2022-10-13T20:13:58;12.70;99.90
22503;DHT22;11418;48.118;9.992;2022-10-13T20:17:59;12.60;99.90
22503;DHT22;11418;48.118;9.992;2022-10-13T20:21:59;12.50;99.90
22503;DHT22;11418;48.118;9.992;2022-10-13T20:26:06;12.40;99.90
22503;DHT22;11418;48.118;9.992;2022-10-13T20:30:07;12.50;99.90
22503;DHT22;11418;48.118;9.992;2022-10-13T20:34:09;12.50;99.90
22503;DHT22;11418;48.118;9.992;2022-10-13T20:38:10;12.40;99.90
22503;DHT22;11418;48.118;9.992;2022-10-13T20:42:10;12.60;99.90
22503;DHT22;11418;48.118;9.992;2022-10-13T20:46:12;12.60;99.90
22503;DHT22;11418;48.118;9.992;2022-10-13T20:50:13;12.70;99.90
22503;DHT22;11418;48.118;9.992;2022-10-13T20:54:14;12.70;99.90
22503;DHT22;11418;48.118;9.992;2022-10-13T20:58:14;12.70;99.90
22503;DHT22;11418;48.118;9.992;2022-10-13T21:02:15;12.70;99.90
22503;DHT22;11418;48.118;9.992;2022-10-13T21:06:16;12.70;99.90
22503;DHT22;11418;48.118;9.992;2022-10-13T21:10:16;12.70;99.90
22503;DHT22;11418;48.118;9.992;2022-10-13T21:14:17;13.00;99.90
22503;DHT22;11418;48.118;9.992;2022-10-13T21:18:17;12.80;99.90
22503;DHT22;11418;48.118;9.992;2022-10-13T21:22:18;12.80;99.90
22503;DHT22;11418;48.118;9.992;2022-10-13T21:26:20;12.80;99.90
22503;DHT22;11418;48.118;9.992;2022-10-13T21:30:21;12.60;99.90
22503;DHT22;11418;48.118;9.992;2022-10-13T21:34:21;12.60;99.90
22503;DHT22;11418;48.118;9.992;2022-10-13T21:38:22;12.70;99.90
22503;DHT22;11418;48.118;9.992;2022-10-13T21:42:23;12.60;99.90
22503;DHT22;11418;48.118;9.992;2022-10-13T21:46:25;12.70;99.90
22503;DHT22;11418;48.118;9.992;2022-10-13T21:50:27;12.70;99.90
22503;DHT22;11418;48.118;9.992;2022-10-13T21:54:27;12.70;99.90
22503;DHT22;11418;48.118;9.992;2022-10-13T21:58:28;12.70;99.90
22503;DHT22;11418;48.118;9.992;2022-10-13T22:02:28;12.80;99.90
22503;DHT22;11418;48.118;9.992;2022-10-13T22:06:30;13.10;99.90
22503;DHT22;11418;48.118;9.992;2022-10-13T22:10:33;13.00;99.90
22503;DHT22;11418;48.118;9.992;2022-10-13T22:14:33;13.00;99.90
22503;DHT22;11418;48.118;9.992;2022-10-13T22:18:34;12.90;99.90
22503;DHT22;11418;48.118;9.992;2022-10-13T22:22:35;12.70;99.90
22503;DHT22;11418;48.118;9.992;2022-10-13T22:26:36;12.90;99.90
22503;DHT22;11418;48.118;9.992;2022-10-13T22:30:37;12.70;99.90
22503;DHT22;11418;48.118;9.992;2022-10-13T22:34:38;12.60;99.90
22503;DHT22;11418;48.118;9.992;2022-10-13T22:38:39;12.50;99.90
22503;DHT22;11418;48.118;9.992;2022-10-13T22:42:39;12.60;99.90
22503;DHT22;11418;48.118;9.992;2022-10-13T22:46:40;12.60;99.90
22503;DHT22;11418;48.118;9.992;2022-10-13T22:50:40;12.30;99.90
22503;DHT22;11418;48.118;9.992;2022-10-13T22:54:41;12.20;99.90
22503;DHT22;11418;48.118;9.992;2022-10-13T22:58:41;12.10;99.90
22503;DHT22;11418;48.118;9.992;2022-10-13T23:02:42;12.10;99.90
22503;DHT22;11418;48.118;9.992;2022-10-13T23:06:43;12.10;99.90
22503;DHT22;11418;48.118;9.992;2022-10-13T23:10:43;12.20;99.90
22503;DHT22;11418;48.118;9.992;2022-10-13T23:14:44;12.30;99.90
22503;DHT22;11418;48.118;9.992;2022-10-13T23:18:44;12.20;99.90
22503;DHT22;11418;48.118;9.992;2022-10-13T23:22:45;12.20;99.90
22503;DHT22;11418;48.118;9.992;2022-10-13T23:26:46;12.10;99.90
22503;DHT22;11418;48.118;9.992;2022-10-13T23:30:46;12.30;99.90
22503;DHT22;11418;48.118;9.992;2022-10-13T23:34:47;12.10;99.90
22503;DHT22;11418;48.118;9.992;2022-10-13T23:38:52;12.20;99.90
22503;DHT22;11418;48.118;9.992;2022-10-13T23:42:52;12.10;99.90
22503;DHT22;11418;48.118;9.992;2022-10-13T23:46:53;12.00;99.90
22503;DHT22;11418;48.118;9.992;2022-10-13T23:50:54;12.20;99.90
22503;DHT22;11418;48.118;9.992;2022-10-13T23:54:54;12.10;99.90
22503;DHT22;11418;48.118;9.992;2022-10-13T23:58:55;12.00;99.90
